sensor_id;sensor_type;location;lat;lon;timestamp;temperature;humidity
8400;DHT22;4237;47.030;15.396;2022-09-03T00:01:56;12.60;99.90
8400;DHT22;4237;47.030;15.396;2022-09-03T00:07:19;12.40;99.90
8400;DHT22;4237;47.030;15.396;2022-09-03T00:10:01;12.40;99.90
8400;DHT22;4237;47.030;15.396;2022-09-03T00:12:29;12.40;99.90
8400;DHT22;4237;47.030;15.396;2022-09-03T00:15:13;12.30;99.90
8400;DHT22;4237;47.030;15.396;2022-09-03T00:17:44;12.40;99.90
8400;DHT22;4237;47.030;15.396;2022-09-03T00:20:24;12.30;99.90
8400;DHT22;4237;47.030;15.396;2022-09-03T00:22:53;12.20;99.90
8400;DHT22;4237;47.030;15.396;2022-09-03T00:28:03;12.20;99.90
8400;DHT22;4237;47.030;15.396;2022-09-03T00:30:33;12.20;99.90
8400;DHT22;4237;47.030;15.396;2022-09-03T00:33:14;12.20;99.90
8400;DHT22;4237;47.030;15.396;2022-09-03T00:35:53;12.20;99.90
8400;DHT22;4237;47.030;15.396;2022-09-03T00:38:17;12.20;99.90
8400;DHT22;4237;47.030;15.396;2022-09-03T00:46:39;12.10;99.90
8400;DHT22;4237;47.030;15.396;2022-09-03T00:49:19;12.00;99.90
8400;DHT22;4237;47.030;15.396;2022-09-03T01:00:10;11.90;99.90
8400;DHT22;4237;47.030;15.396;2022-09-03T01:03:00;11.90;99.90
8400;DHT22;4237;47.030;15.396;2022-09-03T01:11:31;11.80;99.90
8400;DHT22;4237;47.030;15.396;2022-09-03T01:14:25;11.70;99.90
8400;DHT22;4237;47.030;15.396;2022-09-03T01:22:50;11.60;99.90
8400;DHT22;4237;47.030;15.396;2022-09-03T01:25:47;11.60;99.90
8400;DHT22;4237;47.030;15.396;2022-09-03T01:34:08;11.70;99.90
8400;DHT22;4237;47.030;15.396;2022-09-03T01:36:45;11.60;99.90
8400;DHT22;4237;47.030;15.396;2022-09-03T01:42:41;11.50;99.90
8400;DHT22;4237;47.030;15.396;2022-09-03T01:45:03;11.60;99.90
8400;DHT22;4237;47.030;15.396;2022-09-03T01:48:00;11.50;99.90
8400;DHT22;4237;47.030;15.396;2022-09-03T01:55:53;11.40;99.90
8400;DHT22;4237;47.030;15.396;2022-09-03T01:58:27;11.40;99.90
8400;DHT22;4237;47.030;15.396;2022-09-03T02:00:58;11.40;99.90
8400;DHT22;4237;47.030;15.396;2022-09-03T02:03:38;11.30;99.90
8400;DHT22;4237;47.030;15.396;2022-09-03T02:06:09;11.30;99.90
8400;DHT22;4237;47.030;15.396;2022-09-03T02:08:38;11.30;99.90
8400;DHT22;4237;47.030;15.396;2022-09-03T02:11:09;11.30;99.90
8400;DHT22;4237;47.030;15.396;2022-09-03T02:16:14;11.20;99.90
8400;DHT22;4237;47.030;15.396;2022-09-03T02:18:55;11.20;99.90
8400;DHT22;4237;47.030;15.396;2022-09-03T02:21:26;11.10;99.90
8400;DHT22;4237;47.030;15.396;2022-09-03T02:23:56;11.10;99.90
8400;DHT22;4237;47.030;15.396;2022-09-03T02:26:25;11.10;99.90
8400;DHT22;4237;47.030;15.396;2022-09-03T02:28:55;11.10;99.90
8400;DHT22;4237;47.030;15.396;2022-09-03T02:31:25;11.00;99.90
8400;DHT22;4237;47.030;15.396;2022-09-03T02:33:56;11.00;99.90
8400;DHT22;4237;47.030;15.396;2022-09-03T02:36:31;11.00;99.90
8400;DHT22;4237;47.030;15.396;2022-09-03T02:39:00;11.00;99.90
8400;DHT22;4237;47.030;15.396;2022-09-03T02:41:28;11.00;99.90
8400;DHT22;4237;47.030;15.396;2022-09-03T02:44:12;11.00;99.90
8400;DHT22;4237;47.030;15.396;2022-09-03T02:46:47;11.00;99.90
8400;DHT22;4237;47.030;15.396;2022-09-03T02:49:16;11.10;99.90
8400;DHT22;4237;47.030;15.396;2022-09-03T02:51:44;11.00;99.90
8400;DHT22;4237;47.030;15.396;2022-09-03T02:54:13;11.00;99.90
8400;DHT22;4237;47.030;15.396;2022-09-03T02:56:42;11.00;99.90
8400;DHT22;4237;47.030;15.396;2022-09-03T02:59:10;11.00;99.90
8400;DHT22;4237;47.030;15.396;2022-09-03T03:01:39;11.00;99.90
8400;DHT22;4237;47.030;15.396;2022-09-03T03:04:07;10.90;99.90
8400;DHT22;4237;47.030;15.396;2022-09-03T03:06:36;10.90;99.90
8400;DHT22;4237;47.030;15.396;2022-09-03T03:09:04;10.80;99.90
8400;DHT22;4237;47.030;15.396;2022-09-03T03:11:35;10.80;99.90
8400;DHT22;4237;47.030;15.396;2022-09-03T03:14:03;10.80;99.90
8400;DHT22;4237;47.030;15.396;2022-09-03T03:16:32;10.80;99.90
8400;DHT22;4237;47.030;15.396;2022-09-03T03:19:01;10.70;99.90
8400;DHT22;4237;47.030;15.396;2022-09-03T03:21:29;10.80;99.90
8400;DHT22;4237;47.030;15.396;2022-09-03T03:23:59;10.70;99.90
8400;DHT22;4237;47.030;15.396;2022-09-03T03:26:28;10.80;99.90
8400;DHT22;4237;47.030;15.396;2022-09-03T03:28:59;10.80;99.90
8400;DHT22;4237;47.030;15.396;2022-09-03T03:31:30;10.70;99.90
8400;DHT22;4237;47.030;15.396;2022-09-03T03:34:01;10.70;99.90
8400;DHT22;4237;47.030;15.396;2022-09-03T03:36:32;10.70;99.90
8400;DHT22;4237;47.030;15.396;2022-09-03T03:39:01;10.70;99.90
8400;DHT22;4237;47.030;15.396;2022-09-03T03:41:33;10.70;99.90
8400;DHT22;4237;47.030;15.396;2022-09-03T03:44:04;10.70;99.90
8400;DHT22;4237;47.030;15.396;2022-09-03T03:46:39;10.70;99.90
8400;DHT22;4237;47.030;15.396;2022-09-03T03:49:08;10.70;99.90
8400;DHT22;4237;47.030;15.396;2022-09-03T03:51:38;10.70;99.90
8400;DHT22;4237;47.030;15.396;2022-09-03T03:54:07;10.70;99.90
8400;DHT22;4237;47.030;15.396;2022-09-03T03:56:35;10.60;99.90
8400;DHT22;4237;47.030;15.396;2022-09-03T03:59:04;10.60;99.90
8400;DHT22;4237;47.030;15.396;2022-09-03T04:01:33;10.60;99.90
8400;DHT22;4237;47.030;15.396;2022-09-03T04:04:02;10.60;99.90
8400;DHT22;4237;47.030;15.396;2022-09-03T04:06:32;10.60;99.90
8400;DHT22;4237;47.030;15.396;2022-09-03T04:11:29;10.50;99.90
8400;DHT22;4237;47.030;15.396;2022-09-03T04:13:58;10.60;99.90
8400;DHT22;4237;47.030;15.396;2022-09-03T04:16:27;10.60;99.90
8400;DHT22;4237;47.030;15.396;2022-09-03T04:18:56;10.50;99.90
8400;DHT22;4237;47.030;15.396;2022-09-03T04:21:28;10.60;99.90
8400;DHT22;4237;47.030;15.396;2022-09-03T04:23:57;10.70;99.90
8400;DHT22;4237;47.030;15.396;2022-09-03T04:26:28;10.60;99.90
8400;DHT22;4237;47.030;15.396;2022-09-03T04:29:03;10.60;99.90
8400;DHT22;4237;47.030;15.396;2022-09-03T04:31:32;10.60;99.90
8400;DHT22;4237;47.030;15.396;2022-09-03T04:34:02;10.60;99.90
8400;DHT22;4237;47.030;15.396;2022-09-03T04:36:32;10.80;99.90
8400;DHT22;4237;47.030;15.396;2022-09-03T07:11:09;10.80;99.90
8400;DHT22;4237;47.030;15.396;2022-09-03T07:13:42;32.80;95.30
8400;DHT22;4237;47.030;15.396;2022-09-03T07:16:13;32.50;94.00
8400;DHT22;4237;47.030;15.396;2022-09-03T07:18:42;32.50;94.60
8400;DHT22;4237;47.030;15.396;2022-09-03T07:21:14;33.10;93.10
8400;DHT22;4237;47.030;15.396;2022-09-03T07:23:44;32.90;92.80
8400;DHT22;4237;47.030;15.396;2022-09-03T07:26:16;33.60;92.40
8400;DHT22;4237;47.030;15.396;2022-09-03T07:28:47;34.50;91.30
8400;DHT22;4237;47.030;15.396;2022-09-03T14:19:13;33.90;92.50
8400;DHT22;4237;47.030;15.396;2022-09-03T14:37:54;28.50;99.90
8400;DHT22;4237;47.030;15.396;2022-09-03T16:08:52;28.10;99.90
8400;DHT22;4237;47.030;15.396;2022-09-03T16:11:33;24.00;99.90
8400;DHT22;4237;47.030;15.396;2022-09-03T16:25:16;23.20;99.90
8400;DHT22;4237;47.030;15.396;2022-09-03T16:30:35;23.00;99.90
8400;DHT22;4237;47.030;15.396;2022-09-03T16:33:22;23.00;99.90
8400;DHT22;4237;47.030;15.396;2022-09-03T16:36:05;22.90;99.90
8400;DHT22;4237;47.030;15.396;2022-09-03T16:38:48;22.80;99.90
8400;DHT22;4237;47.030;15.396;2022-09-03T16:41:25;22.80;99.90
8400;DHT22;4237;47.030;15.396;2022-09-03T16:44:46;22.80;99.90
8400;DHT22;4237;47.030;15.396;2022-09-03T16:55:10;22.70;99.90
8400;DHT22;4237;47.030;15.396;2022-09-03T17:03:20;22.40;99.90
